sensor_id;sensor_type;location;lat;lon;timestamp;pressure;altitude;pressure_sealevel;temperature;humidity
74921;BME280;63483;47.384;8.860;2023-01-08T00:01:10;94204.03;;;1.55;51.83
74921;BME280;63483;47.384;8.860;2023-01-08T00:03:37;94204.72;;;1.57;51.44
74921;BME280;63483;47.384;8.860;2023-01-08T00:06:06;94208.13;;;1.58;50.95
74921;BME280;63483;47.384;8.860;2023-01-08T00:08:32;94194.28;;;1.59;51.38
74921;BME280;63483;47.384;8.860;2023-01-08T00:10:59;94200.25;;;1.59;51.01
74921;BME280;63483;47.384;8.860;2023-01-08T00:13:25;94201.88;;;1.60;50.92
74921;BME280;63483;47.384;8.860;2023-01-08T00:15:51;94208.66;;;1.61;50.89
74921;BME280;63483;47.384;8.860;2023-01-08T00:18:18;94207.31;;;1.57;50.73
74921;BME280;63483;47.384;8.860;2023-01-08T00:20:44;94214.34;;;1.55;51.07
74921;BME280;63483;47.384;8.860;2023-01-08T00:23:15;94206.22;;;1.50;50.83
74921;BME280;63483;47.384;8.860;2023-01-08T00:25:41;94202.09;;;0.78;51.39
74921;BME280;63483;47.384;8.860;2023-01-08T00:28:08;94196.97;;;0.26;47.92
74921;BME280;63483;47.384;8.860;2023-01-08T00:30:35;94190.75;;;-0.35;48.58
74921;BME280;63483;47.384;8.860;2023-01-08T00:33:01;94186.81;;;-0.83;48.30
74921;BME280;63483;47.384;8.860;2023-01-08T00:35:27;94190.03;;;-0.70;50.03
74921;BME280;63483;47.384;8.860;2023-01-08T00:37:53;94191.16;;;-0.83;58.46
74921;BME280;63483;47.384;8.860;2023-01-08T00:40:20;94177.41;;;-1.39;52.20
74921;BME280;63483;47.384;8.860;2023-01-08T00:42:46;94181.38;;;-1.92;51.07
74921;BME280;63483;47.384;8.860;2023-01-08T00:45:12;94181.78;;;-2.20;51.14
74921;BME280;63483;47.384;8.860;2023-01-08T00:47:38;94163.75;;;-2.54;51.82
74921;BME280;63483;47.384;8.860;2023-01-08T00:50:05;94162.03;;;-2.67;52.61
74921;BME280;63483;47.384;8.860;2023-01-08T00:52:31;94161.38;;;-2.57;52.43
74921;BME280;63483;47.384;8.860;2023-01-08T00:54:57;94149.78;;;-2.39;52.57
74921;BME280;63483;47.384;8.860;2023-01-08T00:57:23;94144.97;;;-1.74;59.20
74921;BME280;63483;47.384;8.860;2023-01-08T00:59:49;94153.59;;;-1.30;58.06
74921;BME280;63483;47.384;8.860;2023-01-08T01:02:15;94161.81;;;-1.04;53.29
74921;BME280;63483;47.384;8.860;2023-01-08T01:04:41;94161.72;;;-1.02;54.12
74921;BME280;63483;47.384;8.860;2023-01-08T01:07:07;94150.53;;;-1.01;52.76
74921;BME280;63483;47.384;8.860;2023-01-08T01:09:33;94142.97;;;-0.81;53.89
74921;BME280;63483;47.384;8.860;2023-01-08T01:11:58;94134.19;;;-0.68;55.72
74921;BME280;63483;47.384;8.860;2023-01-08T01:14:25;94141.34;;;-0.50;54.12
74921;BME280;63483;47.384;8.860;2023-01-08T01:16:51;94141.59;;;-0.32;56.03
74921;BME280;63483;47.384;8.860;2023-01-08T01:19:17;94144.56;;;-0.16;55.29
74921;BME280;63483;47.384;8.860;2023-01-08T01:21:43;94151.56;;;-0.18;48.19
74921;BME280;63483;47.384;8.860;2023-01-08T01:24:11;94154.28;;;-0.19;48.87
74921;BME280;63483;47.384;8.860;2023-01-08T01:26:38;94165.56;;;-0.10;50.10
74921;BME280;63483;47.384;8.860;2023-01-08T01:29:04;94167.28;;;0.00;52.42
74921;BME280;63483;47.384;8.860;2023-01-08T01:31:30;94165.19;;;0.15;52.56
74921;BME280;63483;47.384;8.860;2023-01-08T01:33:56;94162.41;;;0.28;53.02
74921;BME280;63483;47.384;8.860;2023-01-08T01:36:23;94175.34;;;0.38;52.25
74921;BME280;63483;47.384;8.860;2023-01-08T01:38:51;94173.63;;;0.48;52.25
74921;BME280;63483;47.384;8.860;2023-01-08T01:41:23;94167.00;;;0.55;52.56
74921;BME280;63483;47.384;8.860;2023-01-08T01:43:49;94169.06;;;0.62;51.92
74921;BME280;63483;47.384;8.860;2023-01-08T01:46:21;94164.34;;;0.67;52.19
74921;BME280;63483;47.384;8.860;2023-01-08T01:48:50;94163.38;;;0.68;52.71
74921;BME280;63483;47.384;8.860;2023-01-08T01:51:18;94171.94;;;0.68;51.43
74921;BME280;63483;47.384;8.860;2023-01-08T01:53:44;94169.91;;;0.72;52.09
74921;BME280;63483;47.384;8.860;2023-01-08T01:56:10;94164.75;;;0.72;51.62
74921;BME280;63483;47.384;8.860;2023-01-08T01:58:36;94164.50;;;0.75;51.70
74921;BME280;63483;47.384;8.860;2023-01-08T02:01:07;94168.56;;;0.78;51.46
74921;BME280;63483;47.384;8.860;2023-01-08T02:03:35;94174.41;;;0.80;51.88
74921;BME280;63483;47.384;8.860;2023-01-08T02:09:10;94141.72;;;0.80;51.70
74921;BME280;63483;47.384;8.860;2023-01-08T02:11:46;94138.31;;;0.80;51.91
74921;BME280;63483;47.384;8.860;2023-01-08T02:14:18;94137.38;;;0.81;51.61
74921;BME280;63483;47.384;8.860;2023-01-08T02:16:48;94140.09;;;0.79;51.42
74921;BME280;63483;47.384;8.860;2023-01-08T02:19:29;94132.47;;;0.78;52.15
74921;BME280;63483;47.384;8.860;2023-01-08T02:24:55;94121.56;;;0.54;52.67
74921;BME280;63483;47.384;8.860;2023-01-08T02:27:28;94113.47;;;0.69;51.21
74921;BME280;63483;47.384;8.860;2023-01-08T02:29:55;94108.03;;;0.72;51.76
74921;BME280;63483;47.384;8.860;2023-01-08T02:32:25;94096.66;;;0.74;51.63
74921;BME280;63483;47.384;8.860;2023-01-08T02:34:52;94079.66;;;0.62;52.33
74921;BME280;63483;47.384;8.860;2023-01-08T02:37:17;94076.09;;;0.53;52.03
74921;BME280;63483;47.384;8.860;2023-01-08T02:40:17;94065.69;;;0.55;52.24
74921;BME280;63483;47.384;8.860;2023-01-08T02:42:54;94051.03;;;0.55;52.23
74921;BME280;63483;47.384;8.860;2023-01-08T02:45:44;94040.47;;;0.59;52.63
74921;BME280;63483;47.384;8.860;2023-01-08T02:50:48;94013.59;;;0.51;53.11
74921;BME280;63483;47.384;8.860;2023-01-08T02:53:22;94011.16;;;0.50;52.44
74921;BME280;63483;47.384;8.860;2023-01-08T02:55:52;94008.44;;;0.51;52.60
74921;BME280;63483;47.384;8.860;2023-01-08T02:58:20;94014.00;;;0.47;51.99
74921;BME280;63483;47.384;8.860;2023-01-08T03:00:48;94011.94;;;0.41;52.46
74921;BME280;63483;47.384;8.860;2023-01-08T03:03:21;94015.75;;;0.46;52.49
74921;BME280;63483;47.384;8.860;2023-01-08T03:05:50;94003.94;;;0.53;52.31
74921;BME280;63483;47.384;8.860;2023-01-08T03:08:17;94018.22;;;0.57;52.62
74921;BME280;63483;47.384;8.860;2023-01-08T03:10:48;94009.69;;;0.67;52.80
74921;BME280;63483;47.384;8.860;2023-01-08T03:13:30;94003.69;;;0.66;52.85
74921;BME280;63483;47.384;8.860;2023-01-08T03:16:00;93993.53;;;0.74;52.35
74921;BME280;63483;47.384;8.860;2023-01-08T03:18:30;93997.59;;;0.77;51.92
74921;BME280;63483;47.384;8.860;2023-01-08T03:21:00;93992.06;;;0.82;52.30
74921;BME280;63483;47.384;8.860;2023-01-08T03:23:27;93997.47;;;0.88;52.14
74921;BME280;63483;47.384;8.860;2023-01-08T03:25:53;93993.00;;;0.90;51.92
74921;BME280;63483;47.384;8.860;2023-01-08T03:28:23;93978.88;;;0.95;51.81
74921;BME280;63483;47.384;8.860;2023-01-08T03:30:49;93984.72;;;0.97;51.98
74921;BME280;63483;47.384;8.860;2023-01-08T03:33:18;93977.38;;;1.02;51.66
74921;BME280;63483;47.384;8.860;2023-01-08T03:35:46;93971.94;;;1.05;52.33
74921;BME280;63483;47.384;8.860;2023-01-08T03:38:17;93974.25;;;1.08;51.85
74921;BME280;63483;47.384;8.860;2023-01-08T03:40:47;93974.78;;;1.12;52.12
74921;BME280;63483;47.384;8.860;2023-01-08T03:43:15;93979.81;;;1.13;51.59
74921;BME280;63483;47.384;8.860;2023-01-08T03:45:48;93975.31;;;1.15;51.75
74921;BME280;63483;47.384;8.860;2023-01-08T03:48:15;93974.25;;;1.18;51.71
74921;BME280;63483;47.384;8.860;2023-01-08T03:50:42;93977.47;;;1.20;52.00
74921;BME280;63483;47.384;8.860;2023-01-08T03:53:08;93983.06;;;1.15;51.88
74921;BME280;63483;47.384;8.860;2023-01-08T03:55:33;93986.34;;;-0.11;48.93
74921;BME280;63483;47.384;8.860;2023-01-08T03:57:59;93978.84;;;-0.76;46.20
74921;BME280;63483;47.384;8.860;2023-01-08T04:00:24;93972.09;;;-1.31;46.18
74921;BME280;63483;47.384;8.860;2023-01-08T04:02:50;93981.97;;;-1.47;46.14
74921;BME280;63483;47.384;8.860;2023-01-08T04:05:15;93993.50;;;-1.74;45.65
74921;BME280;63483;47.384;8.860;2023-01-08T04:07:40;93986.41;;;-1.93;45.69
74921;BME280;63483;47.384;8.860;2023-01-08T04:10:06;93984.44;;;-2.01;46.31
74921;BME280;63483;47.384;8.860;2023-01-08T04:12:31;93978.66;;;-1.38;51.45
74921;BME280;63483;47.384;8.860;2023-01-08T04:14:57;93982.34;;;-2.07;60.95
74921;BME280;63483;47.384;8.860;2023-01-08T04:17:22;93978.75;;;-2.50;52.99
74921;BME280;63483;47.384;8.860;2023-01-08T04:19:47;93987.06;;;-2.93;53.12
74921;BME280;63483;47.384;8.860;2023-01-08T04:22:13;93973.03;;;-3.23;53.45
74921;BME280;63483;47.384;8.860;2023-01-08T04:24:38;93974.50;;;-3.43;52.79
74921;BME280;63483;47.384;8.860;2023-01-08T04:27:04;93987.09;;;-3.64;53.65
74921;BME280;63483;47.384;8.860;2023-01-08T04:29:29;93977.34;;;-3.83;53.70
74921;BME280;63483;47.384;8.860;2023-01-08T04:31:55;93984.72;;;-3.91;53.95
74921;BME280;63483;47.384;8.860;2023-01-08T04:34:20;93992.91;;;-3.86;54.35
74921;BME280;63483;47.384;8.860;2023-01-08T04:36:45;94004.97;;;-3.88;53.56
74921;BME280;63483;47.384;8.860;2023-01-08T04:39:11;94004.13;;;-3.76;53.22
74921;BME280;63483;47.384;8.860;2023-01-08T04:41:36;94002.97;;;-3.72;53.00
74921;BME280;63483;47.384;8.860;2023-01-08T04:44:02;94012.69;;;-3.64;52.83
74921;BME280;63483;47.384;8.860;2023-01-08T04:46:27;94012.56;;;-3.38;51.17
74921;BME280;63483;47.384;8.860;2023-01-08T04:48:53;94016.44;;;-3.33;51.45
74921;BME280;63483;47.384;8.860;2023-01-08T04:51:18;94013.47;;;-3.15;50.58
74921;BME280;63483;47.384;8.860;2023-01-08T04:53:43;94008.59;;;-3.07;49.53
74921;BME280;63483;47.384;8.860;2023-01-08T04:56:10;94013.53;;;-2.81;49.46
74921;BME280;63483;47.384;8.860;2023-01-08T04:58:36;94013.09;;;-2.64;46.68
74921;BME280;63483;47.384;8.860;2023-01-08T05:01:14;94019.41;;;-2.56;46.24
74921;BME280;63483;47.384;8.860;2023-01-08T05:03:42;94013.84;;;-2.39;50.22
74921;BME280;63483;47.384;8.860;2023-01-08T05:06:07;94020.50;;;-2.02;51.72
74921;BME280;63483;47.384;8.860;2023-01-08T05:08:32;94011.28;;;-1.61;53.96
74921;BME280;63483;47.384;8.860;2023-01-08T05:10:59;94005.44;;;-2.30;61.93
74921;BME280;63483;47.384;8.860;2023-01-08T05:13:24;94004.47;;;-2.74;55.63
74921;BME280;63483;47.384;8.860;2023-01-08T05:15:49;94014.25;;;-2.79;55.04
74921;BME280;63483;47.384;8.860;2023-01-08T05:18:15;94016.88;;;-3.03;55.25
74921;BME280;63483;47.384;8.860;2023-01-08T05:20:40;94019.44;;;-3.39;54.89
74921;BME280;63483;47.384;8.860;2023-01-08T05:23:05;94017.75;;;-3.51;55.10
74921;BME280;63483;47.384;8.860;2023-01-08T05:25:31;94022.06;;;-3.76;54.70
74921;BME280;63483;47.384;8.860;2023-01-08T05:27:56;94028.19;;;-3.54;55.77
74921;BME280;63483;47.384;8.860;2023-01-08T05:30:21;94024.16;;;-3.21;57.26
74921;BME280;63483;47.384;8.860;2023-01-08T05:32:47;94034.94;;;-3.05;55.16
74921;BME280;63483;47.384;8.860;2023-01-08T05:35:12;94039.25;;;-3.29;53.19
74921;BME280;63483;47.384;8.860;2023-01-08T05:37:37;94026.47;;;-3.18;53.91
74921;BME280;63483;47.384;8.860;2023-01-08T05:40:03;94034.13;;;-2.36;56.62
74921;BME280;63483;47.384;8.860;2023-01-08T05:42:29;94035.97;;;-1.81;57.62
74921;BME280;63483;47.384;8.860;2023-01-08T05:44:54;94035.19;;;-1.38;58.88
74921;BME280;63483;47.384;8.860;2023-01-08T05:47:20;94038.34;;;-1.02;57.77
74921;BME280;63483;47.384;8.860;2023-01-08T05:49:45;94041.00;;;-0.71;57.89
74921;BME280;63483;47.384;8.860;2023-01-08T05:52:10;94032.22;;;-0.47;56.99
74921;BME280;63483;47.384;8.860;2023-01-08T05:54:35;94029.75;;;-0.28;56.44
74921;BME280;63483;47.384;8.860;2023-01-08T05:57:01;94021.28;;;-0.09;58.09
74921;BME280;63483;47.384;8.860;2023-01-08T05:59:26;94028.66;;;0.06;57.43
74921;BME280;63483;47.384;8.860;2023-01-08T06:01:51;94028.16;;;0.21;56.40
74921;BME280;63483;47.384;8.860;2023-01-08T06:04:17;94027.13;;;0.34;55.80
74921;BME280;63483;47.384;8.860;2023-01-08T06:06:42;94032.16;;;0.45;56.38
74921;BME280;63483;47.384;8.860;2023-01-08T06:09:07;94030.69;;;0.52;55.10
74921;BME280;63483;47.384;8.860;2023-01-08T06:11:33;94031.66;;;0.61;55.66
74921;BME280;63483;47.384;8.860;2023-01-08T06:13:58;94029.34;;;0.68;55.62
74921;BME280;63483;47.384;8.860;2023-01-08T06:16:24;94029.63;;;0.74;55.00
74921;BME280;63483;47.384;8.860;2023-01-08T06:18:49;94029.91;;;0.81;54.72
74921;BME280;63483;47.384;8.860;2023-01-08T06:21:14;94033.56;;;0.88;54.68
74921;BME280;63483;47.384;8.860;2023-01-08T06:23:40;94023.69;;;0.94;55.12
74921;BME280;63483;47.384;8.860;2023-01-08T06:26:05;94017.97;;;1.00;54.99
74921;BME280;63483;47.384;8.860;2023-01-08T06:28:31;94027.75;;;1.06;54.86
74921;BME280;63483;47.384;8.860;2023-01-08T06:30:57;94023.09;;;1.09;55.35
74921;BME280;63483;47.384;8.860;2023-01-08T06:33:23;94022.84;;;1.13;54.70
74921;BME280;63483;47.384;8.860;2023-01-08T06:35:48;94019.16;;;1.15;54.59
74921;BME280;63483;47.384;8.860;2023-01-08T06:38:14;94016.03;;;1.21;54.73
74921;BME280;63483;47.384;8.860;2023-01-08T06:40:40;94012.25;;;1.25;54.44
74921;BME280;63483;47.384;8.860;2023-01-08T06:43:05;94010.34;;;1.27;54.58
74921;BME280;63483;47.384;8.860;2023-01-08T06:45:31;93988.75;;;1.29;55.09
74921;BME280;63483;47.384;8.860;2023-01-08T06:48:01;93986.72;;;1.32;55.15
74921;BME280;63483;47.384;8.860;2023-01-08T06:50:27;93985.47;;;1.36;55.07
74921;BME280;63483;47.384;8.860;2023-01-08T06:52:53;93985.31;;;1.38;54.70
74921;BME280;63483;47.384;8.860;2023-01-08T06:55:19;93983.44;;;1.40;54.71
74921;BME280;63483;47.384;8.860;2023-01-08T06:57:45;93977.97;;;1.43;54.72
74921;BME280;63483;47.384;8.860;2023-01-08T07:00:10;93979.38;;;1.47;54.24
74921;BME280;63483;47.384;8.860;2023-01-08T07:02:36;93968.00;;;0.23;51.75
74921;BME280;63483;47.384;8.860;2023-01-08T07:05:01;93966.69;;;-0.43;51.20
74921;BME280;63483;47.384;8.860;2023-01-08T07:07:27;93971.50;;;-1.02;50.80
74921;BME280;63483;47.384;8.860;2023-01-08T07:09:52;93960.25;;;-0.90;51.70
74921;BME280;63483;47.384;8.860;2023-01-08T07:12:17;93954.69;;;-1.06;52.64
74921;BME280;63483;47.384;8.860;2023-01-08T07:14:42;93968.84;;;-1.33;50.98
74921;BME280;63483;47.384;8.860;2023-01-08T07:17:08;93966.53;;;-1.36;50.82
74921;BME280;63483;47.384;8.860;2023-01-08T07:19:33;93970.56;;;-1.33;51.17
74921;BME280;63483;47.384;8.860;2023-01-08T07:21:59;93971.28;;;-1.31;51.72
74921;BME280;63483;47.384;8.860;2023-01-08T07:24:24;93970.34;;;-1.63;51.01
74921;BME280;63483;47.384;8.860;2023-01-08T07:26:49;93957.38;;;-1.61;48.79
74921;BME280;63483;47.384;8.860;2023-01-08T07:29:15;93963.38;;;-1.72;48.21
74921;BME280;63483;47.384;8.860;2023-01-08T07:31:40;93975.28;;;-1.71;48.26
74921;BME280;63483;47.384;8.860;2023-01-08T07:34:05;93976.22;;;-1.19;54.95
74921;BME280;63483;47.384;8.860;2023-01-08T07:36:31;93961.28;;;-1.78;63.09
74921;BME280;63483;47.384;8.860;2023-01-08T07:38:56;93938.31;;;-1.47;59.47
74921;BME280;63483;47.384;8.860;2023-01-08T07:41:21;93935.63;;;-1.90;55.99
74921;BME280;63483;47.384;8.860;2023-01-08T07:43:47;93941.44;;;-2.31;55.83
74921;BME280;63483;47.384;8.860;2023-01-08T07:46:12;93949.25;;;-2.55;55.16
74921;BME280;63483;47.384;8.860;2023-01-08T07:48:38;93938.78;;;-2.75;55.26
74921;BME280;63483;47.384;8.860;2023-01-08T07:51:05;93936.88;;;-2.96;55.90
74921;BME280;63483;47.384;8.860;2023-01-08T07:53:31;93939.22;;;-2.92;56.82
74921;BME280;63483;47.384;8.860;2023-01-08T07:56:05;93952.50;;;-2.99;55.86
74921;BME280;63483;47.384;8.860;2023-01-08T07:58:31;93973.91;;;-3.00;54.71
74921;BME280;63483;47.384;8.860;2023-01-08T08:00:57;93978.13;;;-2.87;55.12
74921;BME280;63483;47.384;8.860;2023-01-08T08:03:22;93964.16;;;-2.83;55.61
74921;BME280;63483;47.384;8.860;2023-01-08T08:05:48;93969.41;;;-2.73;55.08
74921;BME280;63483;47.384;8.860;2023-01-08T08:08:14;93986.78;;;-2.66;54.97
74921;BME280;63483;47.384;8.860;2023-01-08T08:10:40;93993.78;;;-2.56;53.71
74921;BME280;63483;47.384;8.860;2023-01-08T08:13:06;93994.03;;;-2.14;51.32
74921;BME280;63483;47.384;8.860;2023-01-08T08:15:33;94010.78;;;-1.87;53.40
74921;BME280;63483;47.384;8.860;2023-01-08T08:17:59;94011.91;;;-1.69;50.37
74921;BME280;63483;47.384;8.860;2023-01-08T08:20:25;94026.06;;;-1.42;51.85
74921;BME280;63483;47.384;8.860;2023-01-08T08:22:50;94042.09;;;-1.06;54.32
74921;BME280;63483;47.384;8.860;2023-01-08T08:25:19;94045.59;;;-0.75;55.12
74921;BME280;63483;47.384;8.860;2023-01-08T08:27:44;94056.75;;;-0.43;57.73
74921;BME280;63483;47.384;8.860;2023-01-08T08:30:10;94048.25;;;-0.13;58.93
74921;BME280;63483;47.384;8.860;2023-01-08T08:32:36;94044.69;;;0.09;58.21
74921;BME280;63483;47.384;8.860;2023-01-08T08:35:03;94048.59;;;-0.18;62.14
74921;BME280;63483;47.384;8.860;2023-01-08T08:37:28;94049.88;;;0.29;59.96
74921;BME280;63483;47.384;8.860;2023-01-08T08:39:54;94035.84;;;0.52;59.31
74921;BME280;63483;47.384;8.860;2023-01-08T08:42:19;94044.53;;;0.71;58.78
74921;BME280;63483;47.384;8.860;2023-01-08T08:44:45;94043.22;;;0.86;58.13
74921;BME280;63483;47.384;8.860;2023-01-08T08:47:10;94033.44;;;1.00;57.90
74921;BME280;63483;47.384;8.860;2023-01-08T08:49:36;94034.25;;;1.10;57.61
74921;BME280;63483;47.384;8.860;2023-01-08T08:52:02;94028.13;;;1.21;57.36
74921;BME280;63483;47.384;8.860;2023-01-08T08:54:28;94030.03;;;1.29;57.18
74921;BME280;63483;47.384;8.860;2023-01-08T08:56:53;94043.06;;;1.37;56.92
74921;BME280;63483;47.384;8.860;2023-01-08T08:59:18;94051.91;;;1.44;57.53
74921;BME280;63483;47.384;8.860;2023-01-08T09:01:44;94040.75;;;1.53;57.64
74921;BME280;63483;47.384;8.860;2023-01-08T09:04:09;94047.28;;;1.57;57.89
74921;BME280;63483;47.384;8.860;2023-01-08T09:06:35;94039.91;;;1.63;57.33
74921;BME280;63483;47.384;8.860;2023-01-08T09:09:00;94034.19;;;1.69;56.57
74921;BME280;63483;47.384;8.860;2023-01-08T09:11:25;94016.66;;;1.72;57.60
74921;BME280;63483;47.384;8.860;2023-01-08T09:13:51;94011.22;;;1.75;57.44
74921;BME280;63483;47.384;8.860;2023-01-08T09:16:16;94034.03;;;1.80;57.06
74921;BME280;63483;47.384;8.860;2023-01-08T09:18:42;94031.16;;;1.83;57.26
74921;BME280;63483;47.384;8.860;2023-01-08T09:21:08;94027.06;;;1.90;57.01
74921;BME280;63483;47.384;8.860;2023-01-08T09:23:34;94028.28;;;1.96;57.19
74921;BME280;63483;47.384;8.860;2023-01-08T09:26:00;94031.09;;;2.03;56.84
74921;BME280;63483;47.384;8.860;2023-01-08T09:28:26;94019.50;;;2.07;56.93
74921;BME280;63483;47.384;8.860;2023-01-08T09:30:52;94016.66;;;2.10;56.79
74921;BME280;63483;47.384;8.860;2023-01-08T09:33:17;94010.38;;;2.12;56.89
74921;BME280;63483;47.384;8.860;2023-01-08T09:35:43;94017.84;;;2.16;56.72
74921;BME280;63483;47.384;8.860;2023-01-08T09:38:08;94028.03;;;2.17;57.04
74921;BME280;63483;47.384;8.860;2023-01-08T09:40:45;94027.75;;;2.20;57.31
74921;BME280;63483;47.384;8.860;2023-01-08T09:43:18;94040.38;;;2.23;57.03
74921;BME280;63483;47.384;8.860;2023-01-08T09:45:49;94029.75;;;2.26;56.76
74921;BME280;63483;47.384;8.860;2023-01-08T09:48:16;94038.84;;;2.30;56.84
74921;BME280;63483;47.384;8.860;2023-01-08T09:50:43;94030.31;;;2.30;56.93
74921;BME280;63483;47.384;8.860;2023-01-08T09:53:12;94038.84;;;2.30;57.51
74921;BME280;63483;47.384;8.860;2023-01-08T09:55:39;94020.31;;;2.35;57.39
74921;BME280;63483;47.384;8.860;2023-01-08T09:58:42;94025.22;;;2.38;57.83
74921;BME280;63483;47.384;8.860;2023-01-08T10:01:00;94021.53;;;2.41;56.97
74921;BME280;63483;47.384;8.860;2023-01-08T10:03:30;94028.03;;;2.45;57.11
74921;BME280;63483;47.384;8.860;2023-01-08T10:06:07;94017.41;;;2.48;57.60
74921;BME280;63483;47.384;8.860;2023-01-08T10:08:33;94006.78;;;2.51;57.46
74921;BME280;63483;47.384;8.860;2023-01-08T10:10:58;94013.44;;;2.54;57.55
74921;BME280;63483;47.384;8.860;2023-01-08T10:13:24;94007.13;;;2.56;57.06
74921;BME280;63483;47.384;8.860;2023-01-08T10:15:50;94017.22;;;2.59;57.11
74921;BME280;63483;47.384;8.860;2023-01-08T10:18:18;94011.75;;;2.62;57.47
74921;BME280;63483;47.384;8.860;2023-01-08T10:20:47;94015.53;;;2.22;57.35
74921;BME280;63483;47.384;8.860;2023-01-08T10:23:18;94003.72;;;0.96;53.93
74921;BME280;63483;47.384;8.860;2023-01-08T10:25:56;94003.63;;;0.17;54.38
74921;BME280;63483;47.384;8.860;2023-01-08T10:30:50;93984.53;;;-0.21;55.99
74921;BME280;63483;47.384;8.860;2023-01-08T10:33:20;93982.41;;;-0.06;57.67
74921;BME280;63483;47.384;8.860;2023-01-08T10:35:53;93984.78;;;-0.55;55.53
74921;BME280;63483;47.384;8.860;2023-01-08T10:41:15;93959.88;;;-0.54;55.79
74921;BME280;63483;47.384;8.860;2023-01-08T10:44:05;93958.63;;;-0.60;56.52
74921;BME280;63483;47.384;8.860;2023-01-08T10:46:40;93939.91;;;-0.72;53.27
74921;BME280;63483;47.384;8.860;2023-01-08T10:49:16;93941.66;;;-0.72;53.39
74921;BME280;63483;47.384;8.860;2023-01-08T10:51:50;93934.81;;;-0.62;54.64
74921;BME280;63483;47.384;8.860;2023-01-08T10:54:45;93940.88;;;-0.63;50.86
74921;BME280;63483;47.384;8.860;2023-01-08T10:59:48;93939.50;;;-0.36;55.06
74921;BME280;63483;47.384;8.860;2023-01-08T11:04:57;93929.75;;;0.47;59.22
74921;BME280;63483;47.384;8.860;2023-01-08T11:07:23;93926.09;;;0.79;58.71
74921;BME280;63483;47.384;8.860;2023-01-08T11:09:50;93913.97;;;1.09;58.88
74921;BME280;63483;47.384;8.860;2023-01-08T11:12:37;93913.06;;;1.38;59.87
74921;BME280;63483;47.384;8.860;2023-01-08T11:17:45;93892.28;;;1.77;59.26
74921;BME280;63483;47.384;8.860;2023-01-08T11:20:28;93886.50;;;1.93;60.20
74921;BME280;63483;47.384;8.860;2023-01-08T11:23:23;93870.06;;;2.12;62.34
74921;BME280;63483;47.384;8.860;2023-01-08T11:31:16;93849.38;;;2.48;59.63
74921;BME280;63483;47.384;8.860;2023-01-08T11:33:44;93832.31;;;2.55;58.59
74921;BME280;63483;47.384;8.860;2023-01-08T11:36:35;93828.81;;;2.64;59.13
74921;BME280;63483;47.384;8.860;2023-01-08T11:39:04;93818.56;;;2.73;58.09
74921;BME280;63483;47.384;8.860;2023-01-08T11:41:53;93815.19;;;2.80;57.95
74921;BME280;63483;47.384;8.860;2023-01-08T11:44:35;93805.34;;;2.84;58.08
74921;BME280;63483;47.384;8.860;2023-01-08T11:52:45;93775.06;;;3.02;57.84
74921;BME280;63483;47.384;8.860;2023-01-08T11:58:09;93767.00;;;3.14;58.11
74921;BME280;63483;47.384;8.860;2023-01-08T12:03:48;93761.56;;;3.25;57.75
74921;BME280;63483;47.384;8.860;2023-01-08T12:06:19;93741.22;;;3.30;57.93
74921;BME280;63483;47.384;8.860;2023-01-08T12:11:49;93722.66;;;3.35;58.08
74921;BME280;63483;47.384;8.860;2023-01-08T12:14:39;93714.09;;;3.43;58.25
74921;BME280;63483;47.384;8.860;2023-01-08T12:34:11;93714.78;;;3.69;57.95
74921;BME280;63483;47.384;8.860;2023-01-08T12:36:41;93718.03;;;3.71;57.71
74921;BME280;63483;47.384;8.860;2023-01-08T12:39:29;93722.88;;;3.75;58.05
74921;BME280;63483;47.384;8.860;2023-01-08T12:42:13;93723.38;;;3.78;57.96
74921;BME280;63483;47.384;8.860;2023-01-08T12:44:43;93722.56;;;3.78;58.07
74921;BME280;63483;47.384;8.860;2023-01-08T12:47:15;93710.59;;;3.77;58.60
74921;BME280;63483;47.384;8.860;2023-01-08T12:49:46;93700.06;;;3.78;58.25
74921;BME280;63483;47.384;8.860;2023-01-08T12:52:19;93695.19;;;3.83;58.15
74921;BME280;63483;47.384;8.860;2023-01-08T12:55:20;93701.69;;;3.87;58.33
74921;BME280;63483;47.384;8.860;2023-01-08T12:58:01;93686.66;;;3.91;58.21
74921;BME280;63483;47.384;8.860;2023-01-08T13:00:38;93692.31;;;3.95;58.26
74921;BME280;63483;47.384;8.860;2023-01-08T13:03:04;93680.47;;;4.00;58.19
74921;BME280;63483;47.384;8.860;2023-01-08T13:05:36;93673.66;;;3.99;58.32
74921;BME280;63483;47.384;8.860;2023-01-08T13:08:07;93680.94;;;4.04;59.30
74921;BME280;63483;47.384;8.860;2023-01-08T13:10:52;93679.16;;;4.13;58.93
74921;BME280;63483;47.384;8.860;2023-01-08T13:13:40;93687.91;;;4.12;58.60
74921;BME280;63483;47.384;8.860;2023-01-08T13:19:05;93684.69;;;4.10;58.34
74921;BME280;63483;47.384;8.860;2023-01-08T13:24:03;93684.84;;;4.08;58.11
74921;BME280;63483;47.384;8.860;2023-01-08T13:26:30;93686.81;;;4.06;58.34
74921;BME280;63483;47.384;8.860;2023-01-08T13:29:23;93683.28;;;3.23;54.07
74921;BME280;63483;47.384;8.860;2023-01-08T13:31:49;93679.09;;;2.19;53.94
74921;BME280;63483;47.384;8.860;2023-01-08T13:34:21;93688.16;;;1.42;54.95
74921;BME280;63483;47.384;8.860;2023-01-08T13:36:57;93684.13;;;0.94;56.21
74921;BME280;63483;47.384;8.860;2023-01-08T13:39:29;93684.72;;;0.50;56.31
74921;BME280;63483;47.384;8.860;2023-01-08T13:42:42;93685.47;;;0.23;57.05
74921;BME280;63483;47.384;8.860;2023-01-08T13:44:48;93679.28;;;0.06;56.45
74921;BME280;63483;47.384;8.860;2023-01-08T13:49:47;93665.50;;;-0.12;57.14
74921;BME280;63483;47.384;8.860;2023-01-08T13:52:42;93667.94;;;-0.21;56.79
74921;BME280;63483;47.384;8.860;2023-01-08T13:55:17;93667.41;;;-0.15;56.77
74921;BME280;63483;47.384;8.860;2023-01-08T13:57:51;93663.59;;;-0.10;55.61
74921;BME280;63483;47.384;8.860;2023-01-08T14:00:25;93662.44;;;0.21;54.03
74921;BME280;63483;47.384;8.860;2023-01-08T14:02:53;93653.34;;;0.27;53.31
74921;BME280;63483;47.384;8.860;2023-01-08T14:05:23;93650.19;;;0.43;53.16
74921;BME280;63483;47.384;8.860;2023-01-08T14:07:50;93642.22;;;0.64;52.80
74921;BME280;63483;47.384;8.860;2023-01-08T14:10:17;93638.59;;;1.03;55.43
74921;BME280;63483;47.384;8.860;2023-01-08T14:12:42;93636.28;;;1.46;57.58
74921;BME280;63483;47.384;8.860;2023-01-08T14:15:16;93640.28;;;1.84;59.72
74921;BME280;63483;47.384;8.860;2023-01-08T14:17:43;93634.53;;;2.17;60.26
74921;BME280;63483;47.384;8.860;2023-01-08T14:20:10;93622.72;;;2.40;58.82
74921;BME280;63483;47.384;8.860;2023-01-08T14:22:36;93615.50;;;2.60;59.35